Time;durP1;ratioP1;P1;durP2;ratioP2;P2;SDS_P1;SDS_P2;PMS_P1;PMS_P2;Temp;Humidity;BMP_temperature;BMP_pressure;BME280_temperature;BME280_humidity;BME280_pressure;Samples;Min_cycle;Max_cycle;Signal;HPM_P1;HPM_P2
2021/03/05 00:01:34;;;;;;;21.27;14.70;;;12.70;51.90;;;;;;5059083;28;20041;-47
2021/03/05 00:03:59;;;;;;;23.50;14.68;;;12.60;52.00;;;;;;5053571;28;20037;-47
2021/03/05 00:06:25;;;;;;;24.17;14.98;;;12.70;51.90;;;;;;5052901;28;20379;-48
2021/03/05 00:08:51;;;;;;;24.77;14.05;;;12.70;51.80;;;;;;5059829;28;20330;-49
2021/03/05 00:11:17;;;;;;;19.02;14.23;;;12.70;51.40;;;;;;5054808;28;20051;-48
2021/03/05 00:13:42;;;;;;;23.40;15.23;;;12.80;51.60;;;;;;5055644;28;20032;-49
2021/03/05 00:16:08;;;;;;;20.55;14.10;;;12.50;51.00;;;;;;5057802;28;20036;-47
2021/03/05 00:18:33;;;;;;;24.08;14.52;;;12.60;51.70;;;;;;5060439;28;20037;-52
2021/03/05 00:20:59;;;;;;;21.88;14.07;;;12.60;51.60;;;;;;5061761;28;20044;-53
2021/03/05 00:23:24;;;;;;;20.00;14.18;;;12.60;51.60;;;;;;5053949;28;20658;-53
2021/03/05 00:25:50;;;;;;;17.15;12.82;;;12.70;51.70;;;;;;5058350;28;20082;-53
2021/03/05 00:28:17;;;;;;;25.48;14.43;;;12.70;51.80;;;;;;5064165;28;20455;-47
2021/03/05 00:30:43;;;;;;;22.00;14.57;;;12.70;51.70;;;;;;5056349;28;20033;-47
2021/03/05 00:33:09;;;;;;;20.75;13.45;;;12.70;51.60;;;;;;5063749;28;20115;-49
2021/03/05 00:35:34;;;;;;;21.35;14.07;;;12.70;51.60;;;;;;5050226;28;20119;-50
2021/03/05 00:38:00;;;;;;;21.20;14.57;;;12.70;51.60;;;;;;5062566;28;20055;-49
2021/03/05 00:40:26;;;;;;;20.00;14.57;;;12.70;51.80;;;;;;5058221;28;20117;-47
2021/03/05 00:42:52;;;;;;;22.25;15.43;;;12.70;51.90;;;;;;5061016;28;20040;-50
2021/03/05 00:45:20;;;;;;;21.55;14.45;;;12.70;52.10;;;;;;5056250;28;20470;-48
2021/03/05 00:47:46;;;;;;;24.55;14.93;;;12.80;52.00;;;;;;5058000;28;20040;-48
2021/03/05 00:50:14;;;;;;;23.08;14.95;;;12.80;51.80;;;;;;5061001;28;20036;-47
2021/03/05 00:52:40;;;;;;;22.42;15.70;;;12.80;51.80;;;;;;5070249;28;20044;-47
2021/03/05 00:55:09;;;;;;;25.13;15.80;;;12.80;52.10;;;;;;5060995;28;20041;-46
2021/03/05 00:57:35;;;;;;;20.20;14.05;;;12.80;52.00;;;;;;5057305;28;20056;-48
2021/03/05 01:00:01;;;;;;;19.90;15.15;;;12.70;52.30;;;;;;5058561;28;20036;-50
2021/03/05 01:02:27;;;;;;;25.35;15.18;;;12.70;52.10;;;;;;5059405;28;20512;-47
2021/03/05 01:04:52;;;;;;;23.23;15.95;;;12.70;52.40;;;;;;5056147;28;20040;-48
2021/03/05 01:07:18;;;;;;;23.45;16.00;;;12.70;52.50;;;;;;5054899;28;20387;-49
2021/03/05 01:10:30;;;;;;;23.80;16.90;;;12.70;52.70;;;;;;5059736;28;20127;-47
2021/03/05 01:12:56;;;;;;;23.35;16.25;;;12.80;53.10;;;;;;4991872;28;20069;-47
2021/03/05 01:15:22;;;;;;;21.27;15.82;;;12.70;53.30;;;;;;5058787;28;20567;-48
2021/03/05 01:17:47;;;;;;;23.58;15.43;;;12.70;53.20;;;;;;5057745;28;20048;-47
2021/03/05 01:20:17;;;;;;;21.35;15.65;;;12.80;53.40;;;;;;5060435;28;20084;-48
2021/03/05 01:22:42;;;;;;;23.17;16.35;;;12.70;53.70;;;;;;5056647;28;20044;-46
2021/03/05 01:25:09;;;;;;;21.02;16.17;;;12.70;53.60;;;;;;5056245;28;20037;-47
2021/03/05 01:27:35;;;;;;;27.02;16.60;;;12.80;53.80;;;;;;5055285;28;20456;-48
2021/03/05 01:30:05;;;;;;;21.95;15.38;;;12.80;53.90;;;;;;5059350;28;20425;-47
2021/03/05 01:32:30;;;;;;;23.80;16.02;;;12.70;53.90;;;;;;5058361;28;20047;-47
2021/03/05 01:34:56;;;;;;;18.88;15.38;;;12.70;54.10;;;;;;5059847;28;20037;-51
2021/03/05 01:37:21;;;;;;;21.40;15.15;;;12.70;54.10;;;;;;5054024;28;20427;-48
2021/03/05 01:39:47;;;;;;;23.15;15.48;;;12.70;54.20;;;;;;5061341;28;20043;-50
2021/03/05 01:42:13;;;;;;;22.60;17.17;;;12.70;54.50;;;;;;5063100;28;20037;-47
2021/03/05 01:44:39;;;;;;;21.77;15.13;;;12.70;54.60;;;;;;5055960;28;20596;-48
2021/03/05 01:47:04;;;;;;;22.85;15.73;;;12.70;54.60;;;;;;5058277;28;20067;-48
2021/03/05 01:49:30;;;;;;;23.15;16.75;;;12.70;54.60;;;;;;5058071;28;20071;-48
2021/03/05 01:51:56;;;;;;;25.30;17.23;;;12.70;54.80;;;;;;5059089;28;20037;-48
2021/03/05 01:54:24;;;;;;;23.25;17.65;;;12.60;55.10;;;;;;5057457;28;20040;-47
2021/03/05 01:56:52;;;;;;;26.45;17.23;;;12.60;55.20;;;;;;5055875;28;20086;-47
2021/03/05 01:59:28;;;;;;;23.63;17.75;;;12.60;55.40;;;;;;5052007;28;20076;-52
2021/03/05 02:02:06;;;;;;;24.33;17.65;;;12.50;55.40;;;;;;5058193;28;20037;-50
2021/03/05 02:04:34;;;;;;;22.13;17.48;;;12.50;55.90;;;;;;5057476;28;20044;-49
2021/03/05 02:07:01;;;;;;;27.15;19.65;;;12.50;56.00;;;;;;5063650;28;20040;-48
2021/03/05 02:09:27;;;;;;;23.15;17.60;;;12.50;55.90;;;;;;5059356;28;20047;-47
2021/03/05 02:11:52;;;;;;;26.83;18.42;;;12.60;55.90;;;;;;5061959;28;20036;-47
2021/03/05 02:14:18;;;;;;;33.90;19.17;;;12.60;55.50;;;;;;5057611;28;20043;-47
2021/03/05 02:17:11;;;;;;;24.60;18.88;;;12.60;55.50;;;;;;5065444;28;20075;-48
2021/03/05 02:20:21;;;;;;;26.42;19.25;;;12.50;55.80;;;;;;5034646;28;20044;-47
2021/03/05 02:22:53;;;;;;;25.15;19.65;;;12.50;55.90;;;;;;5021144;28;20501;-51
2021/03/05 02:25:56;;;;;;;25.02;17.70;;;12.50;56.00;;;;;;5056741;28;20036;-48
2021/03/05 02:28:57;;;;;;;26.90;18.85;;;12.50;56.50;;;;;;5054952;28;20040;-48
2021/03/05 02:31:42;;;;;;;26.95;18.50;;;12.50;56.00;;;;;;5033827;28;20044;-51
2021/03/05 02:34:14;;;;;;;26.85;17.52;;;12.70;56.40;;;;;;5058902;28;20120;-48
2021/03/05 02:36:52;;;;;;;29.38;19.70;;;12.70;55.90;;;;;;5059020;28;20067;-47
2021/03/05 02:39:43;;;;;;;26.27;18.80;;;12.70;55.80;;;;;;5057091;28;20028;-50
2021/03/05 02:42:18;;;;;;;28.08;18.42;;;12.80;56.00;;;;;;5054425;28;20033;-47
2021/03/05 02:44:50;;;;;;;25.23;19.40;;;12.80;55.60;;;;;;5058886;28;20024;-49
2021/03/05 02:47:18;;;;;;;27.05;18.20;;;12.80;55.80;;;;;;5073654;28;20507;-47
2021/03/05 02:49:46;;;;;;;26.42;18.75;;;12.90;55.50;;;;;;5056925;28;20424;-50
2021/03/05 02:52:16;;;;;;;24.13;18.88;;;12.90;55.50;;;;;;5057810;28;20086;-47
2021/03/05 02:54:45;;;;;;;26.73;18.80;;;12.90;55.40;;;;;;5063744;28;20409;-47
2021/03/05 03:00:33;;;;;;;26.75;17.58;;;12.90;56.10;;;;;;5007064;28;20105;-48
2021/03/05 03:03:00;;;;;;;23.13;17.30;;;12.90;56.00;;;;;;5062777;28;20413;-47
2021/03/05 03:05:28;;;;;;;23.52;17.45;;;12.80;56.40;;;;;;5064699;28;20032;-48
2021/03/05 03:07:55;;;;;;;26.15;17.77;;;12.90;56.20;;;;;;5057587;28;20048;-48
2021/03/05 03:10:23;;;;;;;26.80;18.00;;;12.90;56.40;;;;;;5073201;28;20040;-47
2021/03/05 03:12:53;;;;;;;21.20;16.77;;;12.80;56.40;;;;;;5054662;28;20110;-51
2021/03/05 03:15:20;;;;;;;26.38;17.05;;;12.80;56.80;;;;;;5057591;28;20036;-48
2021/03/05 03:17:47;;;;;;;29.98;15.65;;;12.80;56.70;;;;;;5051787;28;20102;-47
2021/03/05 03:20:19;;;;;;;21.90;14.98;;;12.80;57.00;;;;;;5057831;28;20891;-49
2021/03/05 03:22:44;;;;;;;18.20;14.48;;;12.90;57.30;;;;;;5052870;28;20029;-48
2021/03/05 03:25:12;;;;;;;24.77;15.27;;;12.80;57.70;;;;;;5063082;28;20032;-49
2021/03/05 03:27:38;;;;;;;22.08;15.15;;;12.80;57.80;;;;;;5051370;28;20110;-49
2021/03/05 03:30:11;;;;;;;24.15;14.95;;;12.70;58.00;;;;;;5061306;28;20068;-48
2021/03/05 03:32:38;;;;;;;28.92;16.05;;;12.70;58.10;;;;;;5055261;28;20025;-47
2021/03/05 03:35:07;;;;;;;25.38;15.73;;;12.70;58.00;;;;;;5061960;28;20037;-48
2021/03/05 03:37:34;;;;;;;24.92;16.17;;;12.80;58.30;;;;;;5052526;28;20037;-49
2021/03/05 03:40:01;;;;;;;20.70;15.63;;;12.80;58.20;;;;;;5061692;28;20043;-48
2021/03/05 03:42:27;;;;;;;25.25;16.73;;;12.80;58.20;;;;;;5047518;28;20051;-48
2021/03/05 03:44:53;;;;;;;26.90;19.42;;;12.80;58.10;;;;;;5063325;28;20397;-47
2021/03/05 03:47:22;;;;;;;25.50;19.95;;;12.70;57.30;;;;;;5070798;28;20128;-48
2021/03/05 03:49:59;;;;;;;28.95;19.77;;;12.80;57.20;;;;;;5059139;28;20049;-51
2021/03/05 03:52:36;;;;;;;27.42;18.80;;;12.80;56.80;;;;;;5060752;28;20087;-49
2021/03/05 03:55:03;;;;;;;31.95;19.40;;;12.90;56.70;;;;;;5065864;28;20055;-48
2021/03/05 03:57:33;;;;;;;26.70;20.10;;;12.90;56.90;;;;;;5063725;28;20044;-47
2021/03/05 04:00:01;;;;;;;27.27;19.13;;;12.80;56.40;;;;;;5062021;28;20040;-47
2021/03/05 04:02:29;;;;;;;26.70;19.25;;;12.80;56.70;;;;;;5065002;28;20036;-48
2021/03/05 04:04:59;;;;;;;27.27;19.20;;;12.90;57.10;;;;;;5056275;28;20032;-47
2021/03/05 04:07:26;;;;;;;25.02;19.80;;;12.80;56.40;;;;;;5062207;28;20456;-46
2021/03/05 04:09:57;;;;;;;24.90;18.70;;;12.80;57.00;;;;;;5060165;28;20037;-47
2021/03/05 04:12:26;;;;;;;26.58;19.75;;;12.80;56.70;;;;;;5083177;28;20059;-47
2021/03/05 04:14:54;;;;;;;27.65;19.48;;;12.80;56.70;;;;;;5053684;28;20055;-51
2021/03/05 04:17:19;;;;;;;30.58;18.17;;;12.90;56.80;;;;;;5059517;28;20037;-49
2021/03/05 04:19:47;;;;;;;24.55;18.50;;;12.90;56.70;;;;;;5063183;28;20048;-50
2021/03/05 04:25:34;;;;;;;27.80;19.00;;;13.00;56.70;;;;;;5010663;28;20393;-48
2021/03/05 04:28:00;;;;;;;26.95;19.98;;;12.90;56.80;;;;;;5061130;28;20037;-47
2021/03/05 04:30:26;;;;;;;27.95;19.20;;;12.90;56.50;;;;;;5059418;28;20036;-48
2021/03/05 04:32:52;;;;;;;27.13;19.55;;;12.90;56.70;;;;;;5057081;28;20045;-48
2021/03/05 04:35:18;;;;;;;26.63;19.10;;;13.00;56.80;;;;;;5061480;28;20036;-46
2021/03/05 04:37:43;;;;;;;29.20;20.02;;;13.00;56.90;;;;;;5061411;28;20040;-46
2021/03/05 04:40:10;;;;;;;32.35;19.58;;;13.00;56.90;;;;;;5055958;28;20029;-47
2021/03/05 04:42:37;;;;;;;25.80;18.65;;;12.90;57.00;;;;;;5060114;28;20419;-47
2021/03/05 04:45:04;;;;;;;28.45;19.88;;;12.90;57.00;;;;;;5055301;28;20406;-47
2021/03/05 04:47:30;;;;;;;30.98;20.17;;;13.00;57.20;;;;;;5060287;28;20040;-47
2021/03/05 04:49:56;;;;;;;29.90;20.98;;;12.80;56.80;;;;;;5053230;28;20048;-46
2021/03/05 04:52:22;;;;;;;30.63;21.58;;;12.80;56.60;;;;;;5061922;28;20042;-47
2021/03/05 04:54:47;;;;;;;28.35;20.63;;;12.70;57.10;;;;;;5056198;28;20045;-47
2021/03/05 04:57:13;;;;;;;29.80;21.25;;;12.70;56.90;;;;;;5053333;28;20102;-47
2021/03/05 04:59:39;;;;;;;29.10;20.55;;;12.60;56.90;;;;;;5061164;28;20075;-47
2021/03/05 05:02:04;;;;;;;33.20;21.67;;;12.40;57.20;;;;;;5053337;28;20442;-47
2021/03/05 05:04:30;;;;;;;29.73;21.33;;;12.30;57.50;;;;;;5062010;28;20089;-47
2021/03/05 05:06:55;;;;;;;28.50;22.35;;;12.30;57.60;;;;;;5053998;28;20040;-49
2021/03/05 05:09:21;;;;;;;31.60;22.65;;;12.20;57.70;;;;;;5061745;28;20083;-51
2021/03/05 05:11:47;;;;;;;28.90;21.58;;;12.20;58.70;;;;;;5058601;28;20033;-48
2021/03/05 05:14:13;;;;;;;28.38;22.50;;;12.10;58.10;;;;;;5059524;28;20040;-47
2021/03/05 05:16:39;;;;;;;28.50;21.92;;;12.10;58.30;;;;;;5065409;28;20041;-49
2021/03/05 05:19:05;;;;;;;30.92;22.55;;;12.00;58.60;;;;;;5057445;28;20482;-50
2021/03/05 05:21:30;;;;;;;31.05;21.90;;;12.00;58.50;;;;;;5054132;28;20086;-50
2021/03/05 05:23:56;;;;;;;30.10;23.23;;;12.00;58.70;;;;;;5059867;28;20041;-51
2021/03/05 05:26:22;;;;;;;32.50;23.08;;;12.00;58.70;;;;;;5059227;28;20037;-53
2021/03/05 05:28:48;;;;;;;34.95;23.42;;;11.90;58.50;;;;;;5073960;28;20047;-52
2021/03/05 05:31:13;;;;;;;35.17;24.92;;;11.90;58.80;;;;;;5062309;28;20112;-48
2021/03/05 05:33:39;;;;;;;37.53;23.38;;;11.80;58.80;;;;;;5063844;28;20729;-48
2021/03/05 05:36:05;;;;;;;36.38;24.88;;;11.80;59.00;;;;;;5060008;28;20041;-48
2021/03/05 05:38:30;;;;;;;37.40;25.40;;;11.80;59.50;;;;;;5059213;28;20037;-47
2021/03/05 05:41:01;;;;;;;32.47;23.80;;;11.70;59.00;;;;;;5055125;28;20037;-48
2021/03/05 05:50:11;;;;;;;32.47;24.23;;;11.60;59.80;;;;;;5036412;28;20048;-48
2021/03/05 05:52:37;;;;;;;32.90;23.75;;;11.50;59.60;;;;;;5055230;28;20445;-47
2021/03/05 05:55:09;;;;;;;31.02;23.13;;;11.60;59.80;;;;;;5058070;28;20029;-48
2021/03/05 05:57:37;;;;;;;31.02;22.67;;;11.60;59.80;;;;;;5053329;28;20048;-50
2021/03/05 06:00:05;;;;;;;33.55;23.92;;;11.70;59.50;;;;;;5061569;28;20045;-49
2021/03/05 06:02:32;;;;;;;33.65;24.80;;;11.70;59.40;;;;;;5055133;28;20037;-46
2021/03/05 06:04:58;;;;;;;29.20;22.42;;;11.70;59.50;;;;;;5063110;28;20513;-47
2021/03/05 06:07:24;;;;;;;35.70;25.90;;;11.70;59.50;;;;;;5062186;28;20041;-46
2021/03/05 06:09:51;;;;;;;30.58;24.10;;;11.70;59.60;;;;;;5066314;28;20158;-47
2021/03/05 06:12:17;;;;;;;32.53;24.02;;;11.70;59.60;;;;;;5059267;28;20040;-47
2021/03/05 06:14:44;;;;;;;33.95;24.00;;;11.60;59.80;;;;;;5053082;28;20405;-50
2021/03/05 06:17:10;;;;;;;37.83;25.58;;;11.60;59.70;;;;;;5056708;28;20422;-48
2021/03/05 06:19:36;;;;;;;40.00;27.08;;;11.60;59.40;;;;;;5052724;28;20033;-49
2021/03/05 06:22:15;;;;;;;37.88;26.48;;;11.70;59.10;;;;;;5058721;28;20656;-50
2021/03/05 06:24:44;;;;;;;40.42;27.77;;;11.70;58.90;;;;;;5055420;28;20083;-50
2021/03/05 06:27:11;;;;;;;39.95;25.17;;;11.70;59.30;;;;;;5054917;28;20041;-51
2021/03/05 06:29:43;;;;;;;46.38;29.33;;;11.60;59.00;;;;;;5053221;28;20067;-50
2021/03/05 06:32:11;;;;;;;40.70;28.42;;;11.60;58.90;;;;;;5061473;28;20040;-49
2021/03/05 06:34:50;;;;;;;42.15;27.60;;;11.60;59.00;;;;;;5054739;28;20090;-47
2021/03/05 06:37:18;;;;;;;41.70;25.63;;;11.60;59.10;;;;;;5059426;28;20033;-46
2021/03/05 06:39:44;;;;;;;38.85;26.75;;;11.60;59.10;;;;;;5055380;28;20114;-47
2021/03/05 06:42:14;;;;;;;45.10;27.50;;;11.60;58.80;;;;;;5058293;28;20044;-49
2021/03/05 06:44:42;;;;;;;37.83;27.60;;;11.70;58.90;;;;;;5057412;28;20075;-47
2021/03/05 06:47:14;;;;;;;44.78;28.52;;;11.60;59.10;;;;;;5057670;28;20050;-48
2021/03/05 06:49:43;;;;;;;40.88;27.42;;;11.60;59.10;;;;;;5069513;28;20048;-49
2021/03/05 06:52:10;;;;;;;41.03;28.63;;;11.60;59.30;;;;;;5059642;28;20067;-50
2021/03/05 06:54:37;;;;;;;44.05;27.58;;;11.60;59.40;;;;;;5051499;28;20115;-50
2021/03/05 06:57:05;;;;;;;37.78;26.70;;;11.70;59.20;;;;;;5059036;28;20527;-51
2021/03/05 06:59:45;;;;;;;36.00;27.25;;;11.70;60.00;;;;;;5056921;28;20431;-47
2021/03/05 07:02:15;;;;;;;34.58;26.25;;;11.70;59.80;;;;;;5048719;28;20097;-48
2021/03/05 07:04:50;;;;;;;42.28;27.35;;;11.80;59.70;;;;;;5061879;28;20037;-48
2021/03/05 07:07:20;;;;;;;43.38;26.73;;;11.80;59.70;;;;;;5057487;28;20044;-48
2021/03/05 07:09:48;;;;;;;35.53;27.17;;;11.80;60.00;;;;;;5061102;28;20852;-47
2021/03/05 07:12:16;;;;;;;44.83;27.00;;;11.80;60.00;;;;;;5057438;28;20037;-48
2021/03/05 07:14:44;;;;;;;40.65;27.83;;;11.80;60.00;;;;;;5059866;28;20098;-47
2021/03/05 07:17:10;;;;;;;38.25;27.85;;;11.80;59.80;;;;;;5053316;28;20453;-48
2021/03/05 07:19:37;;;;;;;40.80;27.23;;;11.80;60.00;;;;;;5056391;28;20048;-49
2021/03/05 07:22:04;;;;;;;37.97;28.15;;;11.80;60.00;;;;;;5052489;28;20098;-48
2021/03/05 07:24:31;;;;;;;44.28;29.00;;;11.80;59.90;;;;;;5059203;28;20044;-46
2021/03/05 07:27:02;;;;;;;41.50;28.70;;;11.70;59.60;;;;;;5052427;28;20406;-47
2021/03/05 07:29:44;;;;;;;36.72;26.67;;;11.80;59.70;;;;;;5071550;28;20063;-50
2021/03/05 07:32:28;;;;;;;40.42;26.55;;;11.90;60.40;;;;;;5057103;28;20408;-47
2021/03/05 07:35:19;;;;;;;41.35;28.95;;;11.90;59.80;;;;;;5057569;28;20078;-54
2021/03/05 07:41:21;;;;;;;40.80;29.60;;;11.80;59.90;;;;;;4988487;28;20075;-49
2021/03/05 07:43:47;;;;;;;39.80;29.27;;;11.80;59.70;;;;;;5055189;28;20540;-50
2021/03/05 07:46:13;;;;;;;44.08;29.67;;;11.80;59.50;;;;;;5065739;28;20094;-47
2021/03/05 07:48:39;;;;;;;37.78;28.70;;;11.80;59.80;;;;;;5053791;28;20044;-47
2021/03/05 07:51:05;;;;;;;42.30;28.73;;;11.80;59.90;;;;;;5060428;28;20066;-51
2021/03/05 07:53:54;;;;;;;42.53;29.52;;;11.90;59.20;;;;;;5053749;28;20048;-49
2021/03/05 07:56:39;;;;;;;37.55;28.98;;;12.10;59.90;;;;;;5059243;28;20428;-48
2021/03/05 07:59:05;;;;;;;42.00;29.48;;;12.00;59.70;;;;;;5048830;28;20037;-50
2021/03/05 08:01:49;;;;;;;36.25;27.38;;;12.10;59.40;;;;;;5062451;28;20471;-46
2021/03/05 08:04:15;;;;;;;38.17;29.50;;;12.00;59.60;;;;;;5043591;28;20066;-49
2021/03/05 08:06:40;;;;;;;40.25;29.77;;;12.10;59.30;;;;;;5078043;28;20247;-48
2021/03/05 08:09:07;;;;;;;38.35;28.25;;;12.10;59.30;;;;;;5054449;28;20062;-46
2021/03/05 08:11:36;;;;;;;41.75;28.98;;;12.20;59.10;;;;;;5054880;28;20075;-47
2021/03/05 08:14:25;;;;;;;40.40;27.92;;;12.10;59.00;;;;;;5052855;28;20444;-48
2021/03/05 08:16:54;;;;;;;40.30;27.95;;;12.20;59.20;;;;;;5054754;28;20035;-50
2021/03/05 08:19:20;;;;;;;38.15;26.10;;;12.20;59.50;;;;;;5056226;28;20088;-48
2021/03/05 08:21:58;;;;;;;37.72;26.25;;;12.30;59.00;;;;;;5043479;28;20485;-49
2021/03/05 08:24:29;;;;;;;35.42;23.95;;;12.40;59.30;;;;;;5037197;28;20041;-48
2021/03/05 08:27:03;;;;;;;36.53;23.10;;;12.30;59.10;;;;;;5072037;28;20032;-52
2021/03/05 08:29:50;;;;;;;35.85;25.45;;;12.30;59.40;;;;;;5053412;28;20048;-48
2021/03/05 08:32:34;;;;;;;30.20;23.58;;;12.40;59.10;;;;;;5059480;28;20041;-48
2021/03/05 08:35:10;;;;;;;37.85;24.05;;;12.40;59.00;;;;;;5030432;28;20040;-49
2021/03/05 08:37:38;;;;;;;34.60;26.60;;;12.40;59.20;;;;;;5059016;28;20083;-49
2021/03/05 08:40:13;;;;;;;35.00;27.48;;;12.50;58.80;;;;;;5056526;28;20067;-47
2021/03/05 08:42:58;;;;;;;42.42;26.55;;;12.50;58.90;;;;;;5023834;28;20044;-48
2021/03/05 08:45:29;;;;;;;29.77;23.80;;;12.50;58.40;;;;;;5040701;28;20037;-49
2021/03/05 08:47:57;;;;;;;31.58;23.08;;;12.60;58.60;;;;;;5047247;28;20461;-48
2021/03/05 08:50:31;;;;;;;27.77;18.45;;;12.60;58.40;;;;;;5051232;28;20361;-48
2021/03/05 08:52:59;;;;;;;27.10;19.35;;;12.60;58.10;;;;;;5054941;28;20043;-49
2021/03/05 08:55:33;;;;;;;28.65;19.80;;;12.60;58.20;;;;;;5056078;28;20521;-48
2021/03/05 08:57:59;;;;;;;29.23;21.20;;;12.70;57.90;;;;;;5055456;28;20052;-47
2021/03/05 09:00:32;;;;;;;31.45;22.27;;;12.70;57.90;;;;;;5059458;28;20040;-51
2021/03/05 09:03:09;;;;;;;28.55;21.85;;;12.80;57.60;;;;;;5059082;28;20541;-52
2021/03/05 09:05:39;;;;;;;29.52;21.30;;;12.90;57.30;;;;;;5056694;28;20555;-50
2021/03/05 09:08:09;;;;;;;29.55;21.27;;;12.80;57.30;;;;;;5061567;28;20036;-48
2021/03/05 09:10:42;;;;;;;28.67;19.20;;;12.90;57.20;;;;;;5062989;28;20045;-46
2021/03/05 09:13:09;;;;;;;27.88;19.00;;;12.90;57.00;;;;;;5064388;28;20033;-48
2021/03/05 09:15:43;;;;;;;30.48;19.98;;;13.00;56.80;;;;;;5058199;28;20048;-51
2021/03/05 09:18:14;;;;;;;23.10;17.07;;;12.90;56.60;;;;;;5057554;28;20820;-46
2021/03/05 09:20:51;;;;;;;29.83;19.80;;;13.00;56.70;;;;;;5053692;28;20537;-49
2021/03/05 09:23:36;;;;;;;28.23;18.55;;;13.10;56.60;;;;;;5063147;28;20510;-50
2021/03/05 09:26:10;;;;;;;23.52;16.98;;;13.20;56.50;;;;;;5035543;28;20044;-50
2021/03/05 09:28:41;;;;;;;33.88;20.27;;;13.10;56.10;;;;;;5062232;28;20093;-49
2021/03/05 09:31:08;;;;;;;30.25;20.25;;;13.10;56.20;;;;;;5058297;28;20036;-51
2021/03/05 09:33:39;;;;;;;29.10;19.48;;;13.10;56.00;;;;;;5062098;28;20474;-47
2021/03/05 09:36:10;;;;;;;27.65;18.92;;;13.20;56.00;;;;;;5055373;28;20687;-47
2021/03/05 09:38:38;;;;;;;27.90;19.90;;;13.30;55.40;;;;;;5054589;28;20139;-48
2021/03/05 09:41:12;;;;;;;29.25;19.55;;;13.40;55.50;;;;;;5065167;28;20044;-49
2021/03/05 09:43:37;;;;;;;25.10;17.90;;;13.40;55.30;;;;;;5059715;28;20223;-49
2021/03/05 09:46:35;;;;;;;26.35;17.90;;;13.40;55.10;;;;;;5047482;28;20343;-50
2021/03/05 09:49:27;;;;;;;21.40;15.23;;;13.50;54.80;;;;;;4988579;28;20060;-48
2021/03/05 09:51:53;;;;;;;25.73;16.85;;;13.50;54.60;;;;;;5046560;28;20364;-48
2021/03/05 09:54:41;;;;;;;23.88;17.00;;;13.60;54.80;;;;;;5063181;28;20037;-48
2021/03/05 09:57:09;;;;;;;27.10;19.05;;;13.60;53.20;;;;;;5029797;28;20037;-52
2021/03/05 09:59:50;;;;;;;24.52;18.75;;;13.50;54.20;;;;;;5060785;28;20402;-47
2021/03/05 10:02:20;;;;;;;24.67;18.05;;;13.70;53.60;;;;;;5028517;28;20579;-48
2021/03/05 10:04:48;;;;;;;22.98;18.35;;;13.70;53.10;;;;;;5061512;28;20137;-48
2021/03/05 10:07:13;;;;;;;25.90;18.23;;;13.80;53.60;;;;;;5048501;28;20150;-49
2021/03/05 10:09:39;;;;;;;30.63;20.70;;;13.90;53.30;;;;;;5054626;28;20379;-51
2021/03/05 10:12:05;;;;;;;31.25;20.05;;;14.00;53.20;;;;;;5060384;28;20028;-49
2021/03/05 10:14:34;;;;;;;27.23;20.48;;;14.00;52.40;;;;;;5044823;28;20045;-50
2021/03/05 10:17:10;;;;;;;29.30;20.35;;;14.00;52.20;;;;;;5048343;28;20093;-49
2021/03/05 10:19:40;;;;;;;27.48;20.55;;;14.00;51.50;;;;;;5058821;28;20033;-48
2021/03/05 10:22:07;;;;;;;29.40;21.48;;;14.00;51.90;;;;;;5053712;28;20033;-48
2021/03/05 10:24:34;;;;;;;30.98;22.30;;;14.00;51.90;;;;;;5056468;28;20048;-47
2021/03/05 10:27:19;;;;;;;31.67;22.70;;;14.00;51.50;;;;;;5061300;28;20441;-48
2021/03/05 10:29:56;;;;;;;27.88;22.48;;;14.10;51.60;;;;;;5060227;28;20044;-48
2021/03/05 10:32:33;;;;;;;34.97;23.13;;;14.20;52.00;;;;;;5024013;28;20047;-55
2021/03/05 10:35:04;;;;;;;33.35;22.35;;;14.30;51.60;;;;;;5039649;28;20459;-53
2021/03/05 10:37:30;;;;;;;32.83;22.73;;;14.40;50.90;;;;;;5042052;28;20041;-48
2021/03/05 10:39:56;;;;;;;29.20;22.40;;;14.40;50.20;;;;;;5046636;28;20043;-49
2021/03/05 10:42:24;;;;;;;34.65;23.45;;;14.40;50.30;;;;;;5059378;28;20040;-48
2021/03/05 10:44:50;;;;;;;34.97;23.45;;;14.40;49.60;;;;;;5056560;28;20055;-51
2021/03/05 10:47:18;;;;;;;32.00;23.23;;;14.40;49.70;;;;;;5061444;28;20045;-48
2021/03/05 10:49:45;;;;;;;32.65;22.50;;;14.50;49.50;;;;;;5056194;28;20036;-48
2021/03/05 10:52:12;;;;;;;35.65;25.15;;;14.50;49.40;;;;;;5061616;28;20127;-47
2021/03/05 10:54:42;;;;;;;33.90;24.48;;;14.60;48.60;;;;;;5069541;28;20036;-48
2021/03/05 10:57:12;;;;;;;32.80;24.33;;;14.60;48.60;;;;;;5059174;28;20126;-48
2021/03/05 10:59:38;;;;;;;35.08;22.75;;;14.70;47.60;;;;;;5053039;28;20402;-49
2021/03/05 11:02:04;;;;;;;31.05;21.55;;;14.70;48.10;;;;;;5058011;28;20033;-49
2021/03/05 11:04:30;;;;;;;30.27;21.80;;;14.70;46.80;;;;;;5058401;28;20037;-46
2021/03/05 11:06:56;;;;;;;27.17;19.48;;;14.70;47.20;;;;;;5058766;28;20087;-49
2021/03/05 11:09:40;;;;;;;26.98;18.60;;;14.70;46.00;;;;;;5054071;28;20052;-48
2021/03/05 11:12:06;;;;;;;28.25;20.15;;;14.70;44.60;;;;;;5024001;28;20024;-48
2021/03/05 11:14:31;;;;;;;29.65;21.33;;;14.80;45.70;;;;;;5058164;28;20049;-47
2021/03/05 11:16:57;;;;;;;27.77;21.42;;;14.90;45.90;;;;;;5074889;28;20043;-47
2021/03/05 11:19:25;;;;;;;27.27;19.48;;;15.00;45.30;;;;;;5058720;28;20082;-51
2021/03/05 11:21:51;;;;;;;27.08;20.92;;;15.00;44.80;;;;;;5055309;28;20089;-48
2021/03/05 11:24:17;;;;;;;27.23;22.00;;;15.00;44.40;;;;;;5058230;28;20029;-46
2021/03/05 11:26:42;;;;;;;32.40;24.15;;;15.00;44.30;;;;;;5055160;28;20082;-49
2021/03/05 11:29:08;;;;;;;31.85;23.55;;;15.10;45.70;;;;;;5059900;28;20041;-48
2021/03/05 11:31:34;;;;;;;32.50;23.35;;;15.20;44.30;;;;;;5034544;28;20043;-47
2021/03/05 11:34:00;;;;;;;37.63;23.60;;;15.20;45.10;;;;;;5012664;28;20033;-50
2021/03/05 11:36:26;;;;;;;33.88;24.23;;;15.50;43.60;;;;;;5048512;28;20433;-51
2021/03/05 11:38:52;;;;;;;29.90;22.23;;;15.50;43.80;;;;;;5076795;28;20082;-50
2021/03/05 11:41:19;;;;;;;29.33;24.13;;;15.50;43.70;;;;;;5039624;28;20091;-48
2021/03/05 11:43:50;;;;;;;31.50;23.35;;;15.60;43.00;;;;;;5057291;28;20533;-48
2021/03/05 11:46:26;;;;;;;33.42;23.70;;;15.60;43.20;;;;;;5055711;28;20524;-51
2021/03/05 11:48:53;;;;;;;34.47;24.05;;;15.70;42.40;;;;;;5063724;28;20048;-51
2021/03/05 11:51:18;;;;;;;33.22;23.58;;;15.70;42.30;;;;;;5057680;28;20406;-52
2021/03/05 11:53:44;;;;;;;26.42;22.23;;;15.70;42.40;;;;;;5057833;28;20036;-52
2021/03/05 11:56:10;;;;;;;30.20;21.30;;;15.80;41.70;;;;;;5044749;28;20529;-50
2021/03/05 11:58:36;;;;;;;29.67;21.35;;;15.80;42.10;;;;;;5056548;28;20056;-48
2021/03/05 12:01:02;;;;;;;29.05;22.83;;;15.90;41.80;;;;;;5056607;28;20033;-49
2021/03/05 12:03:28;;;;;;;33.85;23.08;;;16.00;41.60;;;;;;5036567;28;20059;-49
2021/03/05 12:05:54;;;;;;;33.33;24.40;;;16.20;42.30;;;;;;5059385;28;20494;-47
2021/03/05 12:08:21;;;;;;;37.63;23.38;;;16.30;42.70;;;;;;5054215;28;20125;-49
2021/03/05 12:10:46;;;;;;;31.90;23.80;;;16.30;43.20;;;;;;5061118;28;20044;-47
2021/03/05 12:13:12;;;;;;;35.50;22.65;;;16.30;42.10;;;;;;5060288;28;20040;-59
2021/03/05 12:15:41;;;;;;;29.52;22.67;;;16.30;42.50;;;;;;5047480;28;20047;-51
2021/03/05 12:18:07;;;;;;;32.92;23.90;;;16.40;41.80;;;;;;5055116;28;20115;-53
2021/03/05 12:20:34;;;;;;;32.25;24.30;;;16.70;42.00;;;;;;5062229;28;20662;-50
2021/03/05 12:23:00;;;;;;;31.48;21.58;;;16.60;41.40;;;;;;5061431;28;20039;-49
2021/03/05 12:25:25;;;;;;;30.63;20.95;;;16.70;40.90;;;;;;5063727;28;20492;-47
2021/03/05 12:27:51;;;;;;;28.10;21.25;;;16.80;40.40;;;;;;5058173;28;20041;-52
2021/03/05 12:30:17;;;;;;;29.55;21.85;;;16.80;40.90;;;;;;5059963;28;20174;-47
2021/03/05 12:32:45;;;;;;;31.77;22.38;;;17.10;56.40;;;;;;5057009;28;20543;-46
2021/03/05 12:35:12;;;;;;;32.10;22.45;;;17.00;40.50;;;;;;5064269;28;20509;-48
2021/03/05 12:37:38;;;;;;;31.35;20.77;;;17.00;39.40;;;;;;5060606;28;20071;-49
2021/03/05 12:40:05;;;;;;;30.25;21.80;;;17.20;39.80;;;;;;5058372;28;20116;-49
2021/03/05 12:42:30;;;;;;;30.35;21.65;;;17.30;39.30;;;;;;5061391;28;20036;-49
2021/03/05 12:44:56;;;;;;;27.55;20.38;;;17.50;38.80;;;;;;5058464;28;20033;-54
2021/03/05 12:47:22;;;;;;;28.63;20.33;;;17.60;42.60;;;;;;5063148;28;20489;-50
2021/03/05 12:49:47;;;;;;;29.90;20.88;;;17.80;53.00;;;;;;5057726;28;20041;-48
2021/03/05 12:52:13;;;;;;;29.13;21.67;;;17.20;42.40;;;;;;5064705;28;20058;-48
2021/03/05 12:54:38;;;;;;;28.38;21.58;;;17.80;38.50;;;;;;5056853;28;20392;-49
2021/03/05 12:57:05;;;;;;;27.70;20.50;;;18.00;51.50;;;;;;5062782;28;20040;-49